1,427,580개(31924/71379페이지)
LECTURE
번호 제목 글쓴이 조회 날짜
789120 Liceum Ogólnokształcące W Trzebnicy - Of SahinGordon9679 6 2022.02.14 13:23
789119 Nisko. Zdalna Lekcja Uczniów Liceum Czar TobiasenPierce8453 4 2022.02.14 13:23
789118 Health and fitness Recommendations To Ge VargasSkaaning5084 12 2022.02.14 13:22
789117 Three Card Poker Odds PhamHyde2011 6 2022.02.14 13:22
789116 How To Use The Stock Market To Make Mone EnglandMunkholm0414 2 2022.02.14 13:22
789115 Do You Required A Human Hair Wigs? FraserStorm6038 9 2022.02.14 13:22
789114 Playing An Excellent Video game: Footbal RodgersRice6856 8 2022.02.14 13:22
789113 The Only Secret Poker Strategy You Shoul PatelMayer2337 5 2022.02.14 13:21
789112 web judi slots online dengan variasi keu 사진 WootenWentworth1837 4 2022.02.14 13:21
789111 The Game Of Texas Holdem Poker NicholsTempleton9410 6 2022.02.14 13:21
789110 Give You The Most significant Social Net 사진 SalinasBean8455 11 2022.02.14 13:21
789109 Free Rules For Poker - Improve Your Poke SharmaKhan4805 6 2022.02.14 13:20
789108 What You Should Know About Video Games BergNeal2996 6 2022.02.14 13:20
789107 Rules For Texas Hold'em Poker For Beginn DrachmannTerkildsen8900 9 2022.02.14 13:20
789106 Taking part in A Fantastic Video game: B 사진 BassMathiasen2412 4 2022.02.14 13:19
789105 What Might Bluetooth Hearing Aids Do To DalgaardGibson5293 6 2022.02.14 13:19
789104 Provide Me 15 Minutes, I'll Give You The SchofieldDennis4109 4 2022.02.14 13:19
789103 Simple Steps To Getting Started With Mob DillonRye0928 4 2022.02.14 13:19
789102 Review Of Texas Hold Em Poker Book - Lea FlynnJespersen4588 6 2022.02.14 13:19
789101 火熱小说 我的徒弟都是大反派討論- 第1576章 远古龙魂(1) 貞鬆勁柏 夫是 사진 DyerMacias5762 8 2022.02.14 13:19